Time;durP1;ratioP1;P1;durP2;ratioP2;P2;SDS_P1;SDS_P2;PMS_P1;PMS_P2;Temp;Humidity;BMP_temperature;BMP_pressure;BME280_temperature;BME280_humidity;BME280_pressure;Samples;Min_cycle;Max_cycle;Signal;HPM_P1;HPM_P2
2022/01/25 00:10:39;;;;;;;;;;;5.00;99.90;;;;;;5051433;28;19924;-89
2022/01/25 00:24:33;;;;;;;;;;;5.20;99.90;;;;;;5048705;28;19925;-88
2022/01/25 00:27:14;;;;;;;;;;;5.00;99.90;;;;;;5035113;28;19930;-89
2022/01/25 00:32:15;;;;;;;;;;;4.90;99.90;;;;;;5032896;28;19925;-89
2022/01/25 00:34:46;;;;;;;;;;;4.90;99.90;;;;;;5082164;28;19932;-89
2022/01/25 00:37:13;;;;;;;;;;;4.90;99.90;;;;;;5066449;28;19925;-89
2022/01/25 00:39:41;;;;;;;;;;;4.90;99.90;;;;;;5066123;28;19925;-88
2022/01/25 00:42:13;;;;;;;;;;;4.90;99.90;;;;;;5065489;28;19925;-89
2022/01/25 00:44:46;;;;;;;;;;;4.90;99.90;;;;;;5067148;28;19931;-89
2022/01/25 00:47:16;;;;;;;;;;;4.90;99.90;;;;;;5065427;28;19925;-89
2022/01/25 00:49:51;;;;;;;;;;;4.80;99.90;;;;;;5066208;28;19924;-87
2022/01/25 00:53:52;;;;;;;;;;;4.90;99.90;;;;;;5049401;28;19925;-89
2022/01/25 00:55:25;;;;;;;;;;;4.80;99.90;;;;;;5066594;28;19929;-89
2022/01/25 00:57:53;;;;;;;;;;;4.80;99.90;;;;;;5048664;28;19924;-88
2022/01/25 01:00:25;;;;;;;;;;;4.40;99.90;;;;;;5087188;28;20379;-89
2022/01/25 01:02:54;;;;;;;;;;;4.80;99.90;;;;;;5030913;28;19925;-89
2022/01/25 01:05:22;;;;;;;;;;;4.80;99.90;;;;;;5079263;28;19932;-90
2022/01/25 01:08:19;;;;;;;;;;;4.80;99.90;;;;;;5032812;28;19925;-89
2022/01/25 01:10:47;;;;;;;;;;;4.80;99.90;;;;;;5048679;28;19936;-89
2022/01/25 01:16:29;;;;;;;;;;;4.70;99.90;;;;;;5053153;28;19925;-88
2022/01/25 01:34:37;;;;;;;;;;;4.60;99.90;;;;;;5044233;28;19939;-90
2022/01/25 01:41:44;;;;;;;;;;;4.60;99.90;;;;;;5046783;28;19931;-89
2022/01/25 01:44:22;;;;;;;;;;;4.50;99.90;;;;;;5046941;28;19929;-89
2022/01/25 01:47:21;;;;;;;;;;;4.50;99.90;;;;;;5029201;28;19925;-88
2022/01/25 01:49:44;;;;;;;;;;;4.40;99.90;;;;;;5031114;28;19948;-88
2022/01/25 01:52:13;;;;;;;;;;;4.50;99.90;;;;;;5050912;28;19932;-89
2022/01/25 01:54:41;;;;;;;;;;;4.50;99.90;;;;;;5045316;28;19929;-88
2022/01/25 01:57:12;;;;;;;;;;;4.40;99.90;;;;;;5064039;28;19924;-89
2022/01/25 01:59:40;;;;;;;;;;;4.40;99.90;;;;;;5063013;28;19925;-89
2022/01/25 02:02:11;;;;;;;;;;;4.40;99.90;;;;;;5048507;28;19925;-89
2022/01/25 02:04:41;;;;;;;;;;;4.40;99.90;;;;;;5065788;28;19928;-89
2022/01/25 02:07:15;;;;;;;;;;;4.40;99.90;;;;;;5065176;28;19925;-89
2022/01/25 02:09:43;;;;;;;;;;;4.40;99.90;;;;;;5049097;28;19925;-89
2022/01/25 02:12:11;;;;;;;;;;;4.00;99.90;;;;;;5064759;28;19925;-89
2022/01/25 02:14:41;;;;;;;;;;;4.40;99.90;;;;;;5064184;28;19925;-88
2022/01/25 02:17:27;;;;;;;;;;;4.40;99.90;;;;;;5062655;28;19929;-89
2022/01/25 02:23:18;;;;;;;;;;;4.50;99.90;;;;;;5020853;28;20533;-88
2022/01/25 02:25:48;;;;;;;;;;;4.50;99.90;;;;;;5051844;28;19929;-89
2022/01/25 02:28:16;;;;;;;;;;;4.50;99.90;;;;;;5096740;28;19948;-89
2022/01/25 02:30:46;;;;;;;;;;;4.40;99.90;;;;;;5051762;28;19932;-89
2022/01/25 02:33:14;;;;;;;;;;;4.50;99.90;;;;;;5060271;28;19929;-87
2022/01/25 02:35:43;;;;;;;;;;;4.50;99.90;;;;;;5038258;28;19936;-89
2022/01/25 02:38:13;;;;;;;;;;;4.40;99.90;;;;;;5024143;28;19936;-89
2022/01/25 02:40:40;;;;;;;;;;;4.70;99.90;;;;;;5006769;28;19929;-90
2022/01/25 02:43:08;;;;;;;;;;;5.80;99.90;;;;;;5022364;28;19926;-89
2022/01/25 02:45:37;;;;;;;;;;;4.40;99.90;;;;;;5042315;28;19940;-87
2022/01/25 02:51:01;;;;;;;;;;;4.40;99.90;;;;;;5045459;28;19925;-88
2022/01/25 02:53:30;;;;;;;;;;;4.40;99.90;;;;;;5065097;28;19924;-89
2022/01/25 02:55:58;;;;;;;;;;;4.40;99.90;;;;;;5055984;28;19932;-89
2022/01/25 02:58:27;;;;;;;;;;;4.30;99.90;;;;;;5061097;28;19925;-88
2022/01/25 03:00:55;;;;;;;;;;;4.30;99.90;;;;;;5043522;28;19925;-88
2022/01/25 03:03:26;;;;;;;;;;;4.30;99.90;;;;;;5045746;28;19925;-88
2022/01/25 03:05:56;;;;;;;;;;;4.20;99.90;;;;;;5052210;28;19925;-88
2022/01/25 03:08:51;;;;;;;;;;;4.30;99.90;;;;;;5050406;28;19925;-88
2022/01/25 03:11:21;;;;;;;;;;;3.40;99.90;;;;;;5062883;28;19948;-89
2022/01/25 03:14:18;;;;;;;;;;;4.30;99.90;;;;;;5102099;28;19940;-89
2022/01/25 03:24:58;;;;;;;;;;;3.90;99.90;;;;;;5066142;28;19932;-88
2022/01/25 03:27:26;;;;;;;;;;;4.30;99.90;;;;;;5040372;28;20300;-87
2022/01/25 03:29:57;;;;;;;;;;;4.30;99.90;;;;;;5048967;28;19925;-88
2022/01/25 03:32:25;;;;;;;;;;;4.20;99.90;;;;;;5032207;28;19925;-89
2022/01/25 03:34:54;;;;;;;;;;;5.20;99.90;;;;;;5033279;28;19924;-88
2022/01/25 03:37:23;;;;;;;;;;;4.20;99.90;;;;;;5035019;28;19940;-89
2022/01/25 03:39:52;;;;;;;;;;;4.30;99.90;;;;;;5049782;28;19929;-89
2022/01/25 03:42:22;;;;;;;;;;;3.80;99.90;;;;;;5049179;28;19925;-88
2022/01/25 03:45:21;;;;;;;;;;;4.30;99.90;;;;;;5034411;28;19929;-88
2022/01/25 03:50:44;;;;;;;;;;;4.30;99.90;;;;;;5035578;28;19925;-89
2022/01/25 03:53:12;;;;;;;;;;;4.30;99.90;;;;;;5053915;28;19931;-88
2022/01/25 03:55:42;;;;;;;;;;;4.30;99.90;;;;;;5055112;28;19935;-88
2022/01/25 03:58:12;;;;;;;;;;;4.30;99.90;;;;;;5050814;28;20421;-88
2022/01/25 04:00:42;;;;;;;;;;;4.40;99.90;;;;;;5031654;28;19932;-88
2022/01/25 04:03:24;;;;;;;;;;;4.40;99.90;;;;;;5081531;28;19931;-88
2022/01/25 04:05:53;;;;;;;;;;;4.40;99.90;;;;;;5062115;28;19929;-89
2022/01/25 04:08:23;;;;;;;;;;;4.30;99.90;;;;;;5067778;28;19925;-89
2022/01/25 04:10:52;;;;;;;;;;;4.40;99.90;;;;;;5052435;28;19933;-90
2022/01/25 04:13:22;;;;;;;;;;;4.40;99.90;;;;;;5033070;28;20519;-89
2022/01/25 04:15:55;;;;;;;;;;;4.30;99.90;;;;;;5083320;28;19936;-88
2022/01/25 04:27:24;;;;;;;;;;;4.30;99.90;;;;;;5033202;28;19928;-88
2022/01/25 04:29:54;;;;;;;;;;;4.30;99.90;;;;;;5034448;28;19929;-89
2022/01/25 04:32:43;;;;;;;;;;;4.30;99.90;;;;;;5021277;28;20411;-87
2022/01/25 04:35:40;;;;;;;;;;;4.30;99.90;;;;;;5053741;28;19925;-88
2022/01/25 04:49:35;;;;;;;;;;;4.20;99.90;;;;;;5046332;28;19926;-89
2022/01/25 04:52:07;;;;;;;;;;;4.20;99.90;;;;;;5046245;28;19925;-89
2022/01/25 04:54:49;;;;;;;;;;;4.20;99.90;;;;;;5013298;28;19925;-89
2022/01/25 05:02:32;;;;;;;;;;;4.20;99.90;;;;;;5045765;28;19925;-89
2022/01/25 05:05:09;;;;;;;;;;;5.60;99.90;;;;;;5046802;28;20307;-89
2022/01/25 05:07:52;;;;;;;;;;;4.10;99.90;;;;;;5015048;28;19933;-88
2022/01/25 05:10:35;;;;;;;;;;;4.20;99.90;;;;;;5034440;28;19947;-90
2022/01/25 05:16:48;;;;;;;;;;;4.10;99.90;;;;;;5056755;28;19925;-87
2022/01/25 05:24:14;;;;;;;;;;;3.80;99.90;;;;;;5010871;28;19922;-90
2022/01/25 05:27:13;;;;;;;;;;;3.70;99.90;;;;;;5004121;28;19926;-86
2022/01/25 05:30:08;;;;;;;;;;;4.30;99.90;;;;;;5075006;28;19928;-86
2022/01/25 05:33:14;;;;;;;;;;;4.10;99.90;;;;;;5092833;28;19925;-86
2022/01/25 05:39:23;;;;;;;;;;;4.10;99.90;;;;;;5075648;28;19943;-85
2022/01/25 05:42:43;;;;;;;;;;;4.10;99.90;;;;;;5074900;28;19925;-84
2022/01/25 05:45:25;;;;;;;;;;;4.10;99.90;;;;;;5058230;28;19920;-86
2022/01/25 05:48:49;;;;;;;;;;;4.70;99.90;;;;;;5079259;28;19931;-85
2022/01/25 05:51:28;;;;;;;;;;;4.00;99.90;;;;;;5068880;28;19928;-88
2022/01/25 05:54:10;;;;;;;;;;;4.00;99.90;;;;;;5072479;28;19925;-84
2022/01/25 05:57:04;;;;;;;;;;;5.30;99.90;;;;;;5075495;28;19925;-85
2022/01/25 06:00:22;;;;;;;;;;;4.10;99.90;;;;;;5050474;28;19958;-85
2022/01/25 06:03:12;;;;;;;;;;;4.40;99.90;;;;;;5058897;28;20430;-88
2022/01/25 06:05:59;;;;;;;;;;;5.50;99.90;;;;;;5090130;28;19935;-84
2022/01/25 06:09:08;;;;;;;;;;;3.90;99.90;;;;;;5074059;28;19924;-85
2022/01/25 06:12:05;;;;;;;;;;;4.30;99.90;;;;;;5056362;28;19928;-87
2022/01/25 06:14:46;;;;;;;;;;;4.00;99.90;;;;;;5069150;28;19925;-83
2022/01/25 06:17:23;;;;;;;;;;;4.50;99.90;;;;;;5047816;28;19925;-84
2022/01/25 06:20:07;;;;;;;;;;;3.90;99.90;;;;;;5065900;28;19921;-86
2022/01/25 06:22:42;;;;;;;;;;;5.00;99.90;;;;;;5058350;28;19913;-85
2022/01/25 06:25:30;;;;;;;;;;;3.90;99.90;;;;;;4717512;28;10000292;-85
2022/01/25 06:28:07;;;;;;;;;;;4.00;99.90;;;;;;5069234;28;19943;-83
2022/01/25 06:30:44;;;;;;;;;;;3.90;99.90;;;;;;5068693;28;19936;-85
2022/01/25 06:33:18;;;;;;;;;;;5.30;99.90;;;;;;5070329;28;19925;-85
2022/01/25 06:35:51;;;;;;;;;;;4.20;99.90;;;;;;5051630;28;19925;-86
2022/01/25 06:38:32;;;;;;;;;;;3.60;99.90;;;;;;5070691;28;19927;-87
2022/01/25 06:41:22;;;;;;;;;;;4.00;99.90;;;;;;5067179;28;20888;-84
2022/01/25 06:43:57;;;;;;;;;;;3.90;99.90;;;;;;5069596;28;19919;-88
2022/01/25 06:46:42;;;;;;;;;;;3.90;99.90;;;;;;5070990;28;19935;-88
2022/01/25 06:49:27;;;;;;;;;;;4.10;99.90;;;;;;5067816;28;20727;-87
2022/01/25 06:52:14;;;;;;;;;;;3.90;99.90;;;;;;5052439;28;19925;-84
2022/01/25 06:54:48;;;;;;;;;;;3.90;99.90;;;;;;5071257;28;20300;-84
2022/01/25 06:57:28;;;;;;;;;;;3.90;99.90;;;;;;5050761;28;20349;-85
2022/01/25 07:00:07;;;;;;;;;;;3.80;99.90;;;;;;5049718;28;19924;-86
2022/01/25 07:03:01;;;;;;;;;;;3.80;99.90;;;;;;5067093;28;19935;-85
2022/01/25 07:05:51;;;;;;;;;;;4.20;99.90;;;;;;5068977;28;19925;-87
2022/01/25 07:08:30;;;;;;;;;;;3.80;99.90;;;;;;5050012;28;19929;-85
2022/01/25 07:11:29;;;;;;;;;;;3.90;99.90;;;;;;5068174;28;19920;-84
2022/01/25 07:14:05;;;;;;;;;;;3.90;99.90;;;;;;5074132;28;19935;-84
2022/01/25 07:16:56;;;;;;;;;;;3.80;99.90;;;;;;5073698;28;19913;-87
2022/01/25 07:19:28;;;;;;;;;;;3.80;99.90;;;;;;5058743;28;19929;-86
2022/01/25 07:22:15;;;;;;;;;;;;;;;;;;;;;
2022/01/25 07:25:12;;;;;;;;;;;3.40;99.90;;;;;;5089151;28;19934;-83
2022/01/25 07:28:29;;;;;;;;;;;3.80;99.90;;;;;;5067503;28;19939;-86
2022/01/25 07:31:04;;;;;;;;;;;3.80;99.90;;;;;;5049817;28;19915;-84
2022/01/25 07:33:51;;;;;;;;;;;3.80;99.90;;;;;;5082326;28;19939;-84
2022/01/25 07:36:42;;;;;;;;;;;2.70;99.90;;;;;;5061545;28;19929;-87
2022/01/25 07:39:14;;;;;;;;;;;3.70;99.90;;;;;;5093927;28;19925;-88
2022/01/25 07:41:57;;;;;;;;;;;3.90;99.90;;;;;;5083375;28;19926;-85
2022/01/25 07:44:42;;;;;;;;;;;3.70;99.90;;;;;;5043280;28;19924;-81
2022/01/25 07:47:19;;;;;;;;;;;3.80;99.90;;;;;;5062384;28;20389;-80
2022/01/25 07:50:12;;;;;;;;;;;3.70;99.90;;;;;;5062889;28;19924;-84
2022/01/25 07:52:42;;;;;;;;;;;3.90;99.90;;;;;;5034013;28;19928;-83
2022/01/25 07:55:11;;;;;;;;;;;3.80;99.90;;;;;;5050814;28;19929;-82
2022/01/25 07:57:42;;;;;;;;;;;3.80;99.90;;;;;;5062521;28;19912;-82
2022/01/25 08:00:10;;;;;;;;;;;3.70;99.90;;;;;;5046518;28;19925;-82
2022/01/25 08:02:41;;;;;;;;;;;3.70;99.90;;;;;;5051085;28;19929;-81
2022/01/25 08:05:26;;;;;;;;;;;3.80;99.90;;;;;;5051038;28;19928;-82
2022/01/25 08:08:08;;;;;;;;;;;3.70;99.90;;;;;;5054308;28;19928;-82
2022/01/25 08:10:38;;;;;;;;;;;3.70;99.90;;;;;;5066005;28;19933;-84
2022/01/25 08:13:15;;;;;;;;;;;3.60;99.90;;;;;;5048492;28;19929;-82
2022/01/25 08:15:46;;;;;;;;;;;3.80;99.90;;;;;;5063335;28;20017;-82
2022/01/25 08:18:16;;;;;;;;;;;3.80;99.90;;;;;;5068211;28;19925;-83
2022/01/25 08:20:45;;;;;;;;;;;3.80;99.90;;;;;;5049199;28;19935;-80
2022/01/25 08:23:25;;;;;;;;;;;3.70;99.90;;;;;;5065526;28;19929;-83
2022/01/25 08:25:56;;;;;;;;;;;3.50;99.90;;;;;;4712023;28;10000702;-81
2022/01/25 08:28:27;;;;;;;;;;;3.70;99.90;;;;;;5044138;28;19932;-81
2022/01/25 08:31:02;;;;;;;;;;;3.70;99.90;;;;;;5065575;28;19925;-82
2022/01/25 08:33:34;;;;;;;;;;;3.70;99.90;;;;;;5067826;28;19939;-81
2022/01/25 08:36:03;;;;;;;;;;;3.70;99.90;;;;;;5067093;28;19929;-82
2022/01/25 08:38:35;;;;;;;;;;;3.70;99.90;;;;;;5068115;28;19925;-85
2022/01/25 08:41:09;;;;;;;;;;;3.70;99.90;;;;;;5049909;28;19925;-80
2022/01/25 08:43:45;;;;;;;;;;;3.80;99.90;;;;;;5066093;28;19929;-82
2022/01/25 08:46:16;;;;;;;;;;;3.50;99.90;;;;;;5066648;28;19947;-81
2022/01/25 08:48:45;;;;;;;;;;;4.30;99.90;;;;;;5067423;28;19932;-84
2022/01/25 08:51:15;;;;;;;;;;;3.70;99.90;;;;;;5064530;28;19929;-82
2022/01/25 08:53:45;;;;;;;;;;;3.70;99.90;;;;;;5048528;28;19940;-83
2022/01/25 08:56:12;;;;;;;;;;;3.70;99.90;;;;;;5065577;28;19952;-87
2022/01/25 08:58:49;;;;;;;;;;;3.90;99.90;;;;;;5047470;28;19932;-81
2022/01/25 09:01:18;;;;;;;;;;;3.80;99.90;;;;;;5056099;28;19931;-82
2022/01/25 09:03:49;;;;;;;;;;;3.80;99.90;;;;;;5054138;28;19929;-83
2022/01/25 09:06:18;;;;;;;;;;;3.80;99.90;;;;;;5056198;28;19935;-87
2022/01/25 09:08:46;;;;;;;;;;;3.90;99.90;;;;;;5056325;28;19929;-84
2022/01/25 09:11:14;;;;;;;;;;;3.90;99.90;;;;;;5055565;28;19936;-82
2022/01/25 09:13:43;;;;;;;;;;;3.90;99.90;;;;;;5070999;28;19931;-81
2022/01/25 09:16:11;;;;;;;;;;;4.20;99.90;;;;;;5053253;28;19944;-82
2022/01/25 09:18:40;;;;;;;;;;;3.90;99.90;;;;;;5058074;28;19924;-84
2022/01/25 09:21:08;;;;;;;;;;;4.00;99.90;;;;;;5075970;28;20436;-82
2022/01/25 09:23:36;;;;;;;;;;;4.00;99.90;;;;;;5047483;28;20403;-84
2022/01/25 09:26:05;;;;;;;;;;;4.00;99.90;;;;;;5057751;28;19929;-81
2022/01/25 09:28:33;;;;;;;;;;;4.00;99.90;;;;;;5084897;28;19928;-83
2022/01/25 09:31:02;;;;;;;;;;;5.30;99.90;;;;;;5066600;28;19925;-83
2022/01/25 09:33:30;;;;;;;;;;;3.90;99.90;;;;;;5066546;28;19928;-82
2022/01/25 09:35:58;;;;;;;;;;;4.20;99.90;;;;;;5068091;28;19939;-82
2022/01/25 09:38:26;;;;;;;;;;;3.20;99.90;;;;;;5068039;28;19999;-83
2022/01/25 09:40:55;;;;;;;;;;;4.00;99.90;;;;;;5087705;28;19929;-85
2022/01/25 09:43:24;;;;;;;;;;;4.10;99.90;;;;;;5068596;28;19934;-82
2022/01/25 09:45:52;;;;;;;;;;;4.00;99.90;;;;;;5076809;28;19933;-83
2022/01/25 09:48:24;;;;;;;;;;;4.00;99.90;;;;;;5056066;28;19946;-86
2022/01/25 09:50:52;;;;;;;;;;;4.10;99.90;;;;;;5080634;28;19924;-84
2022/01/25 09:53:20;;;;;;;;;;;4.00;99.90;;;;;;5059806;28;19932;-83
2022/01/25 09:55:54;;;;;;;;;;;2.40;99.90;;;;;;5036119;28;19938;-87
2022/01/25 09:58:21;;;;;;;;;;;4.20;99.90;;;;;;5046696;28;19925;-85
2022/01/25 10:00:55;;;;;;;;;;;4.20;99.90;;;;;;5078965;28;19928;-85
2022/01/25 10:03:33;;;;;;;;;;;4.90;99.90;;;;;;5080066;28;19933;-85
2022/01/25 10:06:12;;;;;;;;;;;4.10;99.90;;;;;;5062462;28;19928;-85
2022/01/25 10:08:41;;;;;;;;;;;4.00;99.90;;;;;;5061601;28;20582;-83
2022/01/25 10:11:13;;;;;;;;;;;4.30;99.90;;;;;;5080821;28;19933;-82
2022/01/25 10:13:42;;;;;;;;;;;4.20;99.90;;;;;;5080286;28;19924;-82
2022/01/25 10:16:21;;;;;;;;;;;4.20;99.90;;;;;;5067329;28;19928;-87
2022/01/25 10:18:56;;;;;;;;;;;4.20;99.90;;;;;;5052817;28;19928;-82
2022/01/25 10:21:25;;;;;;;;;;;4.20;99.90;;;;;;5048719;28;20384;-82
2022/01/25 10:23:59;;;;;;;;;;;4.30;99.90;;;;;;5061017;28;19924;-81
2022/01/25 10:26:29;;;;;;;;;;;4.20;99.90;;;;;;5083848;28;19932;-82
2022/01/25 10:29:11;;;;;;;;;;;4.20;99.90;;;;;;5058273;28;19931;-83
2022/01/25 10:31:42;;;;;;;;;;;4.20;99.90;;;;;;5080800;28;19936;-82
2022/01/25 10:34:12;;;;;;;;;;;4.20;99.90;;;;;;5079043;28;19928;-82
2022/01/25 10:36:43;;;;;;;;;;;4.60;99.90;;;;;;5064831;28;19925;-84
2022/01/25 10:39:12;;;;;;;;;;;4.20;99.90;;;;;;5063558;28;19939;-83
2022/01/25 10:41:40;;;;;;;;;;;4.30;99.90;;;;;;5064701;28;19928;-82
2022/01/25 10:44:08;;;;;;;;;;;4.20;99.90;;;;;;5063760;28;19928;-84
2022/01/25 10:46:41;;;;;;;;;;;4.40;99.90;;;;;;5083380;28;19943;-85
2022/01/25 10:49:10;;;;;;;;;;;5.20;99.90;;;;;;5080219;28;19934;-82
2022/01/25 10:51:46;;;;;;;;;;;4.30;99.90;;;;;;5048600;28;19939;-83
2022/01/25 10:54:16;;;;;;;;;;;4.30;99.90;;;;;;5066777;28;20513;-82
2022/01/25 10:56:45;;;;;;;;;;;4.20;99.90;;;;;;5082613;28;19924;-82
2022/01/25 10:59:15;;;;;;;;;;;4.20;99.90;;;;;;5082475;28;19929;-83
2022/01/25 11:01:49;;;;;;;;;;;4.20;99.90;;;;;;5068207;28;19925;-82
2022/01/25 11:04:18;;;;;;;;;;;3.10;99.90;;;;;;5079639;28;19932;-82
2022/01/25 11:06:53;;;;;;;;;;;4.20;99.90;;;;;;5062718;28;19929;-84
2022/01/25 11:09:23;;;;;;;;;;;4.20;99.90;;;;;;5077465;28;19936;-82
2022/01/25 11:11:54;;;;;;;;;;;4.20;99.90;;;;;;5070341;28;19936;-82
2022/01/25 11:17:09;;;;;;;;;;;4.10;99.90;;;;;;5078912;28;19928;-83
2022/01/25 11:19:42;;;;;;;;;;;4.30;99.90;;;;;;5068179;28;19943;-84
2022/01/25 11:22:10;;;;;;;;;;;4.20;99.90;;;;;;5066622;28;20075;-82
2022/01/25 11:24:39;;;;;;;;;;;4.60;99.90;;;;;;5067477;28;20257;-84
2022/01/25 11:27:07;;;;;;;;;;;4.60;99.90;;;;;;5086568;28;19938;-87
2022/01/25 11:29:40;;;;;;;;;;;4.50;99.90;;;;;;5088373;28;19995;-85
2022/01/25 11:32:12;;;;;;;;;;;4.40;99.90;;;;;;5084462;28;19924;-84
2022/01/25 11:34:43;;;;;;;;;;;5.90;99.90;;;;;;5070635;28;19933;-83
2022/01/25 11:37:12;;;;;;;;;;;4.40;99.90;;;;;;5066397;28;19924;-83
2022/01/25 11:39:41;;;;;;;;;;;5.10;99.90;;;;;;5085931;28;19933;-82
2022/01/25 11:42:12;;;;;;;;;;;4.40;99.90;;;;;;5086308;28;19939;-83
2022/01/25 11:44:47;;;;;;;;;;;4.50;99.90;;;;;;5052871;28;19932;-83
2022/01/25 11:47:16;;;;;;;;;;;4.50;99.90;;;;;;5058011;28;19924;-83
2022/01/25 11:49:58;;;;;;;;;;;4.40;99.90;;;;;;5052741;28;20197;-83
2022/01/25 11:52:26;;;;;;;;;;;4.40;99.90;;;;;;4713398;28;9999699;-82
2022/01/25 11:55:12;;;;;;;;;;;4.40;99.90;;;;;;5082022;28;19928;-83
2022/01/25 11:57:55;;;;;;;;;;;4.40;99.90;;;;;;5074460;28;19932;-83
2022/01/25 12:00:34;;;;;;;;;;;4.70;99.90;;;;;;5068814;28;20326;-85
2022/01/25 12:03:28;;;;;;;;;;;4.40;99.90;;;;;;5066747;28;19925;-81
2022/01/25 12:06:02;;;;;;;;;;;4.40;99.90;;;;;;5067533;28;20426;-81
2022/01/25 12:08:41;;;;;;;;;;;4.40;99.90;;;;;;5087270;28;19939;-82
2022/01/25 12:11:30;;;;;;;;;;;4.00;99.90;;;;;;5034845;28;19930;-81
2022/01/25 12:14:14;;;;;;;;;;;4.40;99.90;;;;;;5068215;28;19928;-82
2022/01/25 12:16:44;;;;;;;;;;;5.90;99.90;;;;;;5058350;28;19928;-83
2022/01/25 12:19:13;;;;;;;;;;;4.40;99.90;;;;;;5063650;28;19936;-82
2022/01/25 12:21:53;;;;;;;;;;;4.60;99.90;;;;;;5082820;28;19936;-82
2022/01/25 12:24:36;;;;;;;;;;;4.60;99.90;;;;;;5083144;28;19924;-82
2022/01/25 12:27:18;;;;;;;;;;;4.60;99.90;;;;;;5047668;28;19931;-83
2022/01/25 12:29:57;;;;;;;;;;;4.50;99.90;;;;;;5083270;28;19932;-83
2022/01/25 12:32:36;;;;;;;;;;;6.30;99.90;;;;;;5044956;28;19939;-81
2022/01/25 12:35:09;;;;;;;;;;;4.80;99.90;;;;;;5078826;28;19932;-85
2022/01/25 12:37:43;;;;;;;;;;;4.60;99.90;;;;;;5065901;28;19940;-84
2022/01/25 12:40:24;;;;;;;;;;;4.80;99.90;;;;;;5052986;28;19995;-82
2022/01/25 12:42:53;;;;;;;;;;;4.60;99.90;;;;;;5066129;28;19925;-85
2022/01/25 12:45:23;;;;;;;;;;;4.60;99.90;;;;;;5065091;28;20248;-83
2022/01/25 12:47:51;;;;;;;;;;;4.60;99.90;;;;;;5084594;28;19929;-83
2022/01/25 12:50:19;;;;;;;;;;;4.60;99.90;;;;;;5067332;28;20185;-83
2022/01/25 12:52:47;;;;;;;;;;;4.50;99.90;;;;;;5083993;28;19928;-84
2022/01/25 12:55:21;;;;;;;;;;;4.50;99.90;;;;;;5048608;28;19924;-82
2022/01/25 12:57:50;;;;;;;;;;;4.50;99.90;;;;;;5083870;28;19939;-81
2022/01/25 13:00:19;;;;;;;;;;;4.60;99.90;;;;;;5083140;28;19928;-84
2022/01/25 13:02:46;;;;;;;;;;;6.00;99.90;;;;;;5083282;28;20139;-82
2022/01/25 13:05:15;;;;;;;;;;;4.60;99.90;;;;;;5060477;28;19935;-84
2022/01/25 13:07:44;;;;;;;;;;;4.50;99.90;;;;;;5049968;28;19939;-83
2022/01/25 13:10:23;;;;;;;;;;;4.50;99.90;;;;;;5077495;28;20511;-83
2022/01/25 13:13:11;;;;;;;;;;;4.40;99.90;;;;;;5079164;28;19936;-84
2022/01/25 13:18:11;;;;;;;;;;;4.70;99.90;;;;;;5080404;28;19944;-82
2022/01/25 13:20:41;;;;;;;;;;;4.50;99.90;;;;;;5064209;28;19948;-84
2022/01/25 13:23:10;;;;;;;;;;;4.40;99.90;;;;;;5053142;28;19939;-83
2022/01/25 13:28:52;;;;;;;;;;;4.60;99.90;;;;;;5080550;28;19925;-83
2022/01/25 13:31:23;;;;;;;;;;;4.40;99.90;;;;;;5079981;28;20485;-81
2022/01/25 13:34:00;;;;;;;;;;;4.50;99.90;;;;;;5082066;28;19928;-82
2022/01/25 13:36:31;;;;;;;;;;;4.30;99.90;;;;;;5061973;28;19932;-82
2022/01/25 13:38:59;;;;;;;;;;;4.40;99.90;;;;;;5084523;28;19933;-82
2022/01/25 13:41:39;;;;;;;;;;;5.10;99.90;;;;;;5085735;28;19928;-81
2022/01/25 13:47:08;;;;;;;;;;;4.30;99.90;;;;;;5084767;28;19942;-82
2022/01/25 13:50:04;;;;;;;;;;;4.40;99.90;;;;;;5065086;28;19924;-81
2022/01/25 13:52:34;;;;;;;;;;;4.40;99.90;;;;;;5080973;28;20297;-83
2022/01/25 13:55:08;;;;;;;;;;;4.50;99.90;;;;;;5084190;28;19924;-82
2022/01/25 13:57:37;;;;;;;;;;;4.40;99.90;;;;;;4714881;28;10000298;-82
2022/01/25 14:00:06;;;;;;;;;;;4.70;99.90;;;;;;5084039;28;19929;-82
2022/01/25 14:02:40;;;;;;;;;;;4.40;99.90;;;;;;5066817;28;19933;-82
2022/01/25 14:05:09;;;;;;;;;;;4.70;99.90;;;;;;5068721;28;19929;-81
2022/01/25 14:07:38;;;;;;;;;;;4.40;99.90;;;;;;5084230;28;19934;-85
2022/01/25 14:10:08;;;;;;;;;;;4.50;99.90;;;;;;5082345;28;19935;-83
2022/01/25 14:23:47;;;;;;;;;;;4.80;99.90;;;;;;5064029;28;19935;-81
2022/01/25 14:26:16;;;;;;;;;;;4.50;99.90;;;;;;5059053;28;19932;-82
2022/01/25 14:28:54;;;;;;;;;;;4.40;99.90;;;;;;5064814;28;19931;-84
2022/01/25 14:31:23;;;;;;;;;;;4.30;99.90;;;;;;5064847;28;19925;-83
2022/01/25 14:33:55;;;;;;;;;;;5.00;99.90;;;;;;5047139;28;19924;-85
2022/01/25 14:36:24;;;;;;;;;;;4.50;99.90;;;;;;5058731;28;19935;-83
2022/01/25 14:38:54;;;;;;;;;;;4.40;99.90;;;;;;5046545;28;19929;-83
2022/01/25 14:41:30;;;;;;;;;;;4.50;99.90;;;;;;5065154;28;19932;-85
2022/01/25 14:44:03;;;;;;;;;;;4.70;99.90;;;;;;5045104;28;19932;-84
2022/01/25 14:46:52;;;;;;;;;;;3.70;99.90;;;;;;5043593;28;19925;-88
2022/01/25 14:49:25;;;;;;;;;;;4.60;99.90;;;;;;5063385;28;19931;-85
2022/01/25 14:51:57;;;;;;;;;;;4.40;99.90;;;;;;5066401;28;19925;-88
2022/01/25 14:54:29;;;;;;;;;;;4.30;99.90;;;;;;5069068;28;19919;-85
2022/01/25 14:57:01;;;;;;;;;;;4.50;99.90;;;;;;5050793;28;19925;-90
2022/01/25 14:59:32;;;;;;;;;;;4.30;99.90;;;;;;5065305;28;19925;-88
2022/01/25 15:02:25;;;;;;;;;;;4.40;99.90;;;;;;5068057;28;19929;-83
2022/01/25 15:04:55;;;;;;;;;;;4.50;99.90;;;;;;5067216;28;20465;-83
2022/01/25 15:07:30;;;;;;;;;;;4.30;99.90;;;;;;5064185;28;19935;-84
2022/01/25 15:10:04;;;;;;;;;;;4.20;99.90;;;;;;5027853;28;19929;-83
2022/01/25 15:12:42;;;;;;;;;;;4.40;99.90;;;;;;5054148;28;19925;-83
2022/01/25 15:15:15;;;;;;;;;;;4.30;99.90;;;;;;5042095;28;19925;-85
2022/01/25 15:17:43;;;;;;;;;;;4.30;99.90;;;;;;5045582;28;19929;-83
2022/01/25 15:20:18;;;;;;;;;;;4.50;99.90;;;;;;5060649;28;19931;-83
2022/01/25 15:22:53;;;;;;;;;;;4.50;99.90;;;;;;5059147;28;19925;-84
2022/01/25 15:25:39;;;;;;;;;;;4.40;99.90;;;;;;5041485;28;19933;-83
2022/01/25 15:28:27;;;;;;;;;;;;;;;;;;;;;
2022/01/25 15:38:13;;;;;;;;;;;4.40;99.90;;;;;;5074304;28;19932;-85
2022/01/25 15:42:08;;;;;;;;;;;4.50;99.90;;;;;;5053836;28;20280;-85
2022/01/25 15:49:44;;;;;;;;;;;4.50;99.90;;;;;;4901254;29;19941;-83
2022/01/25 15:56:56;;;;;;;;;;;4.70;99.90;;;;;;4894895;29;19931;-82
2022/01/25 16:09:30;;;;;;;;;;;4.20;99.90;;;;;;4932424;28;19937;-85
2022/01/25 16:12:36;;;;;;;;;;;3.40;99.90;;;;;;4964283;28;19927;-88
2022/01/25 16:16:02;;;;;;;;;;;4.30;99.90;;;;;;4940005;28;19974;-86
2022/01/25 16:20:09;;;;;;;;;;;;;;;;;;;;;
2022/01/25 16:24:06;;;;;;;;;;;3.70;99.90;;;;;;4974018;28;19940;-89
2022/01/25 16:27:13;;;;;;;;;;;2.70;99.90;;;;;;5016712;28;19934;-86
2022/01/25 16:33:43;;;;;;;;;;;5.40;99.90;;;;;;4946245;29;19973;-86
2022/01/25 16:37:21;;;;;;;;;;;3.90;99.90;;;;;;4958372;29;19941;-85
2022/01/25 16:40:41;;;;;;;;;;;;;;;;;;;;;
2022/01/25 16:44:50;;;;;;;;;;;3.80;99.90;;;;;;4892576;29;19982;-84
2022/01/25 16:52:36;;;;;;;;;;;;;;;;;;;;;
2022/01/25 16:56:16;;;;;;;;;;;3.70;99.90;;;;;;4937018;29;19925;-86
2022/01/25 16:59:52;;;;;;;;;;;3.50;99.90;;;;;;4874208;29;19920;-87
2022/01/25 17:07:41;;;;;;;;;;;;;;;;;;;;;
2022/01/25 17:22:38;;;;;;;;;;;4.50;99.90;;;;;;4907172;29;19934;-86
2022/01/25 17:26:29;;;;;;;;;;;3.60;99.90;;;;;;4799376;29;19937;-85
2022/01/25 17:29:39;;;;;;;;;;;3.60;99.90;;;;;;4778275;29;19941;-85
2022/01/25 17:33:37;;;;;;;;;;;3.50;99.90;;;;;;4850381;29;19944;-86
2022/01/25 17:36:56;;;;;;;;;;;3.80;99.90;;;;;;4836709;29;19942;-85
2022/01/25 17:39:36;;;;;;;;;;;3.10;99.90;;;;;;4853313;29;19928;-84
2022/01/25 17:42:08;;;;;;;;;;;3.50;99.90;;;;;;4839200;29;19933;-85
2022/01/25 17:45:47;;;;;;;;;;;3.60;99.90;;;;;;4853176;29;19935;-85
2022/01/25 17:48:57;;;;;;;;;;;3.50;99.90;;;;;;4892313;29;19933;-84
2022/01/25 17:52:35;;;;;;;;;;;;;;;;;;;;;
2022/01/25 17:55:34;;;;;;;;;;;3.70;99.90;;;;;;4911584;29;19931;-86
2022/01/25 17:58:06;;;;;;;;;;;3.50;99.90;;;;;;4891683;29;19933;-84
2022/01/25 18:01:18;;;;;;;;;;;3.80;99.90;;;;;;4911486;29;19928;-88
2022/01/25 18:04:20;;;;;;;;;;;3.50;99.90;;;;;;4917298;29;19935;-83
2022/01/25 18:06:57;;;;;;;;;;;3.40;99.90;;;;;;4925864;29;19927;-85
2022/01/25 18:09:41;;;;;;;;;;;3.10;99.90;;;;;;5015670;28;19921;-85
2022/01/25 18:12:11;;;;;;;;;;;4.80;99.90;;;;;;5066568;28;19935;-85
2022/01/25 18:14:55;;;;;;;;;;;1.90;99.90;;;;;;5085614;28;19931;-85
2022/01/25 18:17:41;;;;;;;;;;;3.30;99.90;;;;;;5055211;28;19932;-86
2022/01/25 18:20:57;;;;;;;;;;;3.80;99.90;;;;;;5070902;28;20657;-86
2022/01/25 18:24:07;;;;;;;;;;;3.30;99.90;;;;;;5074517;28;19930;-86
2022/01/25 18:27:02;;;;;;;;;;;3.80;99.90;;;;;;5068802;28;19935;-86
2022/01/25 18:30:00;;;;;;;;;;;2.50;99.90;;;;;;5077559;28;19925;-87
2022/01/25 18:32:35;;;;;;;;;;;3.50;99.90;;;;;;5085616;28;19928;-85
2022/01/25 18:35:52;;;;;;;;;;;4.40;99.90;;;;;;5024734;28;19929;-86
2022/01/25 18:38:31;;;;;;;;;;;3.60;99.90;;;;;;5046771;28;20247;-85
2022/01/25 18:42:11;;;;;;;;;;;3.70;99.90;;;;;;5049412;28;19932;-86
2022/01/25 18:44:47;;;;;;;;;;;3.60;99.90;;;;;;5041465;28;20237;-86